createdAt,value
2023-10-14T00:02:22.252Z,24.52
2023-10-14T00:04:53.769Z,23.73
2023-10-14T00:07:26.039Z,21.43
2023-10-14T00:09:58.357Z,20.10
2023-10-14T00:12:29.787Z,18.27
2023-10-14T00:15:04.553Z,18.80
2023-10-14T00:17:36.977Z,19.55
2023-10-14T00:20:06.136Z,21.42
2023-10-14T00:22:34.091Z,21.12
2023-10-14T00:25:01.573Z,19.08
2023-10-14T00:27:29.390Z,20.50
2023-10-14T00:30:10.728Z,18.80
2023-10-14T00:32:40.299Z,21.77
2023-10-14T00:35:10.641Z,22.33
2023-10-14T00:37:38.614Z,20.02
2023-10-14T00:40:13.004Z,21.45
2023-10-14T00:42:43.067Z,26.58
2023-10-14T00:45:12.512Z,24.08
2023-10-14T00:47:41.820Z,22.85
2023-10-14T00:50:22.766Z,21.85
2023-10-14T00:52:58.541Z,23.25
2023-10-14T00:55:39.520Z,20.45
2023-10-14T00:58:07.296Z,20.30
2023-10-14T01:00:39.273Z,23.00
2023-10-14T01:03:11.724Z,20.62
2023-10-14T01:05:39.674Z,20.10
2023-10-14T01:08:12.618Z,19.77
2023-10-14T01:10:43.172Z,24.07
2023-10-14T01:13:15.395Z,21.40
2023-10-14T01:15:50.640Z,20.75
2023-10-14T01:18:19.011Z,24.90
2023-10-14T01:20:47.670Z,21.65
2023-10-14T01:23:18.639Z,19.83
2023-10-14T01:25:49.115Z,21.80
2023-10-14T01:28:31.405Z,21.63
2023-10-14T01:31:07.961Z,22.67
2023-10-14T01:33:37.397Z,22.48
2023-10-14T01:36:05.885Z,23.35
2023-10-14T01:38:34.195Z,21.30
2023-10-14T01:41:05.798Z,20.48
2023-10-14T01:43:33.401Z,21.27
2023-10-14T01:46:02.301Z,20.62
2023-10-14T01:48:33.041Z,21.60
2023-10-14T01:51:01.690Z,21.27
2023-10-14T01:53:33.171Z,25.03
2023-10-14T01:56:02.821Z,22.02
2023-10-14T01:58:34.873Z,24.00
2023-10-14T02:01:14.815Z,21.55
2023-10-14T02:03:52.862Z,23.73
2023-10-14T02:06:26.406Z,20.73
2023-10-14T02:08:59.452Z,20.33
2023-10-14T02:11:34.759Z,25.67
2023-10-14T02:14:07.649Z,27.47
2023-10-14T02:16:43.387Z,26.10
2023-10-14T02:19:27.298Z,28.67
2023-10-14T02:22:01.590Z,24.92
2023-10-14T02:24:29.398Z,25.85
2023-10-14T02:27:07.919Z,23.30
2023-10-14T02:29:35.427Z,26.73
2023-10-14T02:32:03.239Z,24.95
2023-10-14T02:34:32.046Z,24.12
2023-10-14T02:37:02.884Z,23.35
2023-10-14T02:39:30.750Z,21.67
2023-10-14T02:42:01.888Z,23.55
2023-10-14T02:44:34.375Z,26.20
2023-10-14T02:47:05.760Z,26.50
2023-10-14T02:49:56.859Z,21.75
2023-10-14T02:52:30.968Z,23.73
2023-10-14T02:55:38.535Z,23.90
2023-10-14T02:58:07.579Z,24.55
2023-10-14T03:00:35.096Z,24.80
2023-10-14T03:03:14.237Z,22.65
2023-10-14T03:05:52.405Z,21.23
2023-10-14T03:08:23.248Z,21.92
2023-10-14T03:10:57.265Z,22.30
2023-10-14T03:13:25.478Z,22.48
2023-10-14T03:15:55.942Z,23.00
2023-10-14T03:18:32.007Z,23.05
2023-10-14T03:21:00.593Z,22.25
2023-10-14T03:23:29.410Z,24.87
2023-10-14T03:26:16.295Z,22.77
2023-10-14T03:28:51.347Z,26.30
2023-10-14T03:31:20.714Z,25.12
2023-10-14T03:33:48.763Z,23.25
2023-10-14T03:36:21.422Z,25.40
2023-10-14T03:38:57.153Z,24.10
2023-10-14T03:41:30.140Z,24.87
2023-10-14T03:43:58.095Z,29.15
2023-10-14T03:46:36.766Z,29.17
2023-10-14T03:49:22.873Z,24.80
2023-10-14T03:51:55.889Z,26.00
2023-10-14T03:54:25.422Z,23.08
2023-10-14T03:56:53.488Z,23.85
2023-10-14T03:59:23.805Z,23.50
2023-10-14T04:02:00.362Z,25.12
2023-10-14T04:04:30.173Z,23.07
2023-10-14T04:07:01.161Z,24.27
2023-10-14T04:09:52.439Z,25.45
2023-10-14T04:12:39.314Z,26.02
2023-10-14T04:15:14.095Z,22.77
2023-10-14T04:17:47.616Z,23.73
2023-10-14T04:20:22.543Z,23.52
2023-10-14T04:22:54.435Z,24.08
2023-10-14T04:25:25.840Z,26.55
2023-10-14T04:27:54.217Z,23.17
2023-10-14T04:30:33.248Z,24.10
2023-10-14T04:33:04.407Z,22.63
2023-10-14T04:35:34.502Z,26.17
2023-10-14T04:38:05.124Z,24.60
2023-10-14T04:40:35.470Z,28.08
2023-10-14T04:43:17.925Z,24.63
2023-10-14T04:45:52.425Z,27.98
2023-10-14T04:48:29.362Z,27.93
2023-10-14T04:51:01.405Z,23.62
2023-10-14T04:53:28.910Z,24.30
2023-10-14T04:55:56.780Z,24.83
2023-10-14T04:58:34.090Z,26.93
2023-10-14T05:01:02.453Z,25.20
2023-10-14T05:03:30.709Z,25.20
2023-10-14T05:05:58.416Z,23.58
2023-10-14T05:08:44.989Z,24.87
2023-10-14T05:11:19.762Z,22.40
2023-10-14T05:13:55.291Z,23.10
2023-10-14T05:16:23.255Z,24.35
2023-10-14T05:19:08.655Z,23.60
2023-10-14T05:21:36.696Z,23.92
2023-10-14T05:24:10.552Z,26.08
2023-10-14T05:26:45.481Z,27.27
2023-10-14T05:29:20.325Z,25.70
2023-10-14T05:31:48.958Z,25.42
2023-10-14T05:34:22.928Z,27.40
2023-10-14T05:36:53.857Z,24.25
2023-10-14T05:39:22.882Z,26.95
2023-10-14T05:41:57.006Z,27.97
2023-10-14T05:44:28.324Z,27.85
2023-10-14T05:46:56.468Z,24.08
2023-10-14T05:49:26.078Z,25.08
2023-10-14T05:51:54.855Z,26.35
2023-10-14T05:54:23.979Z,26.33
2023-10-14T05:56:54.219Z,26.83
2023-10-14T05:59:22.330Z,28.50
2023-10-14T06:01:50.153Z,27.37
2023-10-14T06:04:18.297Z,28.60
2023-10-14T06:06:46.032Z,25.37
2023-10-14T06:09:17.853Z,26.83
2023-10-14T06:11:48.477Z,31.35
2023-10-14T06:14:15.871Z,35.03
2023-10-14T06:16:43.350Z,36.20
2023-10-14T06:19:14.250Z,28.95
2023-10-14T06:21:41.864Z,28.60
2023-10-14T06:24:12.029Z,26.10
2023-10-14T06:26:39.962Z,25.58
2023-10-14T06:29:10.977Z,34.40
2023-10-14T06:31:42.224Z,33.35
2023-10-14T06:34:12.616Z,32.78
2023-10-14T06:36:40.106Z,33.03
2023-10-14T06:39:16.690Z,31.05
2023-10-14T06:41:44.780Z,31.52
2023-10-14T06:44:16.502Z,31.73
2023-10-14T06:46:47.328Z,40.65
2023-10-14T06:49:15.396Z,37.65
2023-10-14T06:51:43.476Z,29.50
2023-10-14T06:54:11.180Z,33.05
2023-10-14T06:56:38.622Z,31.12
2023-10-14T06:59:06.924Z,31.30
2023-10-14T07:01:36.008Z,30.88
2023-10-14T07:04:04.153Z,32.60
2023-10-14T07:06:32.576Z,31.55
2023-10-14T07:09:06.598Z,32.95
2023-10-14T07:11:34.001Z,32.47
2023-10-14T07:14:01.740Z,34.17
2023-10-14T07:16:29.700Z,37.60
2023-10-14T07:18:57.348Z,36.10
2023-10-14T07:21:25.166Z,33.88
2023-10-14T07:23:52.658Z,36.53
2023-10-14T07:26:20.159Z,35.33
2023-10-14T07:28:52.739Z,35.38
2023-10-14T07:31:25.377Z,33.07
2023-10-14T07:33:54.348Z,33.83
2023-10-14T07:36:21.917Z,32.90
2023-10-14T07:38:49.357Z,33.42
2023-10-14T07:41:17.418Z,35.80
2023-10-14T07:43:45.185Z,34.03
2023-10-14T07:46:12.795Z,33.15
2023-10-14T07:48:41.581Z,35.10
2023-10-14T07:51:28.048Z,32.87
2023-10-14T07:53:57.492Z,33.80
2023-10-14T07:56:24.959Z,33.45
2023-10-14T07:58:54.511Z,32.50
2023-10-14T08:01:24.762Z,31.95
2023-10-14T08:03:58.182Z,29.55
2023-10-14T08:06:27.316Z,30.80
2023-10-14T08:08:55.054Z,28.52
2023-10-14T08:11:23.392Z,32.60
2023-10-14T08:13:51.030Z,27.70
2023-10-14T08:16:19.838Z,28.92
2023-10-14T08:18:48.047Z,27.85
2023-10-14T08:21:15.686Z,28.90
2023-10-14T08:23:43.379Z,30.00
2023-10-14T08:26:15.153Z,29.87
2023-10-14T08:28:43.936Z,25.83
2023-10-14T08:31:13.145Z,25.88
2023-10-14T08:33:44.001Z,27.80
2023-10-14T08:36:14.829Z,25.75
2023-10-14T08:38:44.550Z,25.98
2023-10-14T08:41:16.876Z,26.37
2023-10-14T08:43:51.131Z,24.60
2023-10-14T08:46:20.114Z,25.90
2023-10-14T08:48:51.460Z,21.67
2023-10-14T08:51:19.944Z,25.20
2023-10-14T08:53:53.682Z,24.45
2023-10-14T08:56:23.766Z,25.63
2023-10-14T08:58:51.581Z,22.33
2023-10-14T09:01:19.862Z,20.42
2023-10-14T09:03:50.977Z,21.45
2023-10-14T09:06:19.705Z,21.92
2023-10-14T09:08:49.181Z,25.90
2023-10-14T09:11:29.546Z,24.58
2023-10-14T09:14:05.152Z,21.70
2023-10-14T09:16:37.866Z,25.73
2023-10-14T09:19:06.595Z,21.67
2023-10-14T09:21:44.295Z,19.20
2023-10-14T09:24:12.377Z,21.23
2023-10-14T09:26:45.083Z,20.48
2023-10-14T09:29:13.196Z,24.55
2023-10-14T09:31:42.100Z,21.83
2023-10-14T09:34:23.677Z,20.95
2023-10-14T09:36:53.441Z,19.70
2023-10-14T09:39:26.146Z,23.75
2023-10-14T09:41:55.117Z,21.40
2023-10-14T09:44:23.019Z,20.58
2023-10-14T09:46:54.109Z,20.57
2023-10-14T09:49:24.346Z,21.83
2023-10-14T09:51:55.202Z,19.42
2023-10-14T09:54:23.699Z,20.98
2023-10-14T09:56:51.650Z,20.77
2023-10-14T09:59:22.676Z,23.35
2023-10-14T10:01:51.951Z,23.67
2023-10-14T10:04:23.420Z,19.98
2023-10-14T10:07:05.349Z,20.48
2023-10-14T10:09:49.199Z,24.25
2023-10-14T10:12:17.902Z,19.65
2023-10-14T10:14:45.631Z,23.67
2023-10-14T10:17:14.151Z,22.10
2023-10-14T10:20:10.818Z,26.15
2023-10-14T10:22:52.161Z,20.58
2023-10-14T10:25:24.269Z,20.63
2023-10-14T10:27:56.411Z,21.20
2023-10-14T10:30:25.992Z,21.15
2023-10-14T10:32:53.834Z,21.58
2023-10-14T10:35:21.919Z,19.23
2023-10-14T10:37:55.857Z,20.63
2023-10-14T10:40:28.215Z,21.35
2023-10-14T10:43:14.013Z,18.15
2023-10-14T10:45:43.742Z,20.08
2023-10-14T10:48:17.686Z,15.80
2023-10-14T10:50:51.778Z,18.58
2023-10-14T10:53:20.796Z,20.83
2023-10-14T10:55:52.077Z,16.10
2023-10-14T10:58:22.289Z,21.35
2023-10-14T11:00:51.681Z,18.83
2023-10-14T11:03:19.450Z,20.25
2023-10-14T11:05:48.090Z,17.95
2023-10-14T11:08:17.472Z,19.20
2023-10-14T11:10:49.709Z,18.42
2023-10-14T11:13:17.845Z,20.70
2023-10-14T11:15:48.916Z,15.15
2023-10-14T11:18:31.693Z,17.02
2023-10-14T11:21:04.612Z,15.35
2023-10-14T11:23:35.368Z,15.80
2023-10-14T11:26:09.574Z,17.20
2023-10-14T11:28:39.935Z,17.37
2023-10-14T11:31:11.754Z,26.77
2023-10-14T11:33:39.842Z,20.88
2023-10-14T11:36:07.651Z,19.00
2023-10-14T11:38:44.182Z,18.55
2023-10-14T11:41:13.830Z,16.77
2023-10-14T11:43:45.415Z,15.70
2023-10-14T11:46:14.145Z,16.30
2023-10-14T11:48:46.301Z,28.30
2023-10-14T11:51:21.040Z,20.00
2023-10-14T11:53:54.049Z,19.25
2023-10-14T11:56:22.113Z,15.18
2023-10-14T11:58:50.859Z,17.08
2023-10-14T12:01:24.937Z,17.02
2023-10-14T12:03:53.526Z,15.77
2023-10-14T12:06:21.190Z,16.37
2023-10-14T12:08:52.835Z,13.80
2023-10-14T12:11:21.193Z,16.67
2023-10-14T12:13:51.119Z,15.65
2023-10-14T12:16:19.650Z,14.07
2023-10-14T12:18:47.965Z,15.50
2023-10-14T12:21:15.603Z,24.30
2023-10-14T12:23:47.285Z,18.63
2023-10-14T12:26:30.961Z,15.02
2023-10-14T12:29:08.916Z,15.18
2023-10-14T12:31:40.064Z,14.40
2023-10-14T12:34:10.261Z,15.82
2023-10-14T12:36:42.386Z,15.25
2023-10-14T12:39:20.966Z,13.68
2023-10-14T12:41:52.112Z,16.40
2023-10-14T12:44:23.096Z,15.17
2023-10-14T12:46:50.930Z,15.93
2023-10-14T12:49:21.931Z,15.67
2023-10-14T12:51:50.120Z,16.60
2023-10-14T12:54:18.753Z,15.70
2023-10-14T12:56:47.313Z,15.68
2023-10-14T12:59:15.105Z,18.52
2023-10-14T13:01:59.954Z,15.35
2023-10-14T13:04:31.009Z,19.30
2023-10-14T13:06:59.382Z,14.68
2023-10-14T13:09:31.481Z,16.17
2023-10-14T13:12:00.129Z,16.27
2023-10-14T13:14:28.540Z,16.73
2023-10-14T13:17:02.969Z,19.37
2023-10-14T13:19:36.287Z,15.10
2023-10-14T13:22:11.490Z,13.43
2023-10-14T13:24:39.732Z,16.57
2023-10-14T13:27:07.958Z,18.05
2023-10-14T13:29:37.515Z,12.43
2023-10-14T13:32:05.898Z,14.05
2023-10-14T13:34:34.189Z,16.00
2023-10-14T13:37:02.003Z,15.55
2023-10-14T13:39:36.401Z,16.77
2023-10-14T13:42:07.270Z,16.65
2023-10-14T13:44:36.019Z,16.00
2023-10-14T13:47:06.272Z,16.62
2023-10-14T13:49:35.555Z,18.40
2023-10-14T13:52:05.512Z,15.35
2023-10-14T13:54:34.207Z,15.83
2023-10-14T13:57:02.564Z,17.90
2023-10-14T13:59:30.103Z,16.25
2023-10-14T14:01:57.665Z,17.58
2023-10-14T14:04:25.683Z,16.08
2023-10-14T14:06:53.920Z,13.30
2023-10-14T14:09:24.692Z,14.18
2023-10-14T14:11:57.266Z,15.77
2023-10-14T14:14:26.068Z,13.43
2023-10-14T14:16:54.329Z,14.25
2023-10-14T14:19:22.421Z,14.15
2023-10-14T14:21:53.447Z,14.00
2023-10-14T14:24:23.927Z,14.13
2023-10-14T14:26:52.408Z,16.12
2023-10-14T14:29:19.941Z,13.57
2023-10-14T14:31:48.462Z,11.47
2023-10-14T14:34:16.458Z,11.15
2023-10-14T14:36:46.196Z,13.80
2023-10-14T14:39:16.926Z,14.38
2023-10-14T14:41:45.598Z,12.15
2023-10-14T14:44:14.540Z,14.00
2023-10-14T14:46:43.438Z,13.15
2023-10-14T14:49:13.942Z,11.18
2023-10-14T14:51:43.726Z,12.35
2023-10-14T14:54:11.674Z,11.32
2023-10-14T14:56:39.305Z,11.97
2023-10-14T14:59:06.778Z,14.17
2023-10-14T15:01:35.918Z,13.50
2023-10-14T15:04:05.436Z,16.73
2023-10-14T15:06:33.102Z,17.62
2023-10-14T15:09:01.771Z,20.50
2023-10-14T15:11:31.142Z,18.45
2023-10-14T15:13:58.615Z,19.98
2023-10-14T15:16:40.864Z,15.88
2023-10-14T15:19:09.375Z,18.33
2023-10-14T15:21:37.330Z,16.80
2023-10-14T15:24:06.734Z,16.30
2023-10-14T15:26:34.475Z,13.25
2023-10-14T15:29:05.276Z,17.77
2023-10-14T15:31:33.127Z,14.68
2023-10-14T15:34:03.156Z,15.20
2023-10-14T15:36:30.693Z,14.90
2023-10-14T15:38:59.380Z,15.63
2023-10-14T15:41:27.145Z,16.33
2023-10-14T15:43:54.708Z,17.37
2023-10-14T15:46:22.212Z,17.67
2023-10-14T15:48:52.811Z,19.67
2023-10-14T15:51:20.679Z,19.70
2023-10-14T15:53:54.016Z,21.83
2023-10-14T15:56:21.950Z,21.25
2023-10-14T15:58:51.817Z,22.40
2023-10-14T16:01:21.600Z,22.17
2023-10-14T16:03:49.638Z,23.77
2023-10-14T16:06:17.279Z,25.20
2023-10-14T16:08:44.784Z,21.53
2023-10-14T16:11:16.079Z,22.92
2023-10-14T16:13:43.902Z,19.30
2023-10-14T16:16:11.684Z,22.50
2023-10-14T16:18:39.224Z,25.10
2023-10-14T16:21:06.716Z,27.27
2023-10-14T16:23:34.524Z,25.00
2023-10-14T16:26:02.010Z,24.58
2023-10-14T16:28:29.471Z,27.90
2023-10-14T16:31:00.100Z,23.85
2023-10-14T16:33:28.870Z,33.45
2023-10-14T16:35:58.456Z,29.55
2023-10-14T16:38:26.059Z,27.73
2023-10-14T16:40:53.667Z,26.50
2023-10-14T16:43:24.453Z,27.45
2023-10-14T16:45:52.728Z,27.67
2023-10-14T16:48:20.979Z,26.05
2023-10-14T16:50:48.677Z,24.92
2023-10-14T16:53:17.195Z,25.42
2023-10-14T16:55:46.658Z,21.08
2023-10-14T16:58:15.234Z,29.15
2023-10-14T17:00:42.847Z,30.30
2023-10-14T17:03:11.223Z,32.95
2023-10-14T17:05:41.052Z,30.88
2023-10-14T17:08:10.365Z,30.23
2023-10-14T17:10:39.740Z,31.35
2023-10-14T17:13:10.066Z,29.17
2023-10-14T17:15:38.460Z,27.73
2023-10-14T17:18:07.929Z,27.40
2023-10-14T17:20:36.603Z,20.33
2023-10-14T17:23:05.500Z,21.73
2023-10-14T17:25:34.694Z,19.98
2023-10-14T17:28:07.215Z,22.73
2023-10-14T17:30:34.832Z,19.27
2023-10-14T17:33:03.899Z,21.30
2023-10-14T17:35:33.552Z,20.50
2023-10-14T17:38:02.334Z,22.80
2023-10-14T17:40:30.975Z,20.88
2023-10-14T17:43:05.937Z,23.48
2023-10-14T17:45:34.987Z,22.85
2023-10-14T17:48:07.691Z,21.55
2023-10-14T17:50:36.950Z,25.70
2023-10-14T17:53:10.886Z,24.95
2023-10-14T17:55:38.752Z,26.00
2023-10-14T17:58:06.897Z,25.33
2023-10-14T18:00:35.800Z,23.60
2023-10-14T18:03:09.387Z,24.73
2023-10-14T18:05:44.568Z,25.40
2023-10-14T18:08:13.941Z,23.35
2023-10-14T18:10:42.712Z,22.13
2023-10-14T18:13:12.765Z,22.23
2023-10-14T18:15:42.044Z,24.83
2023-10-14T18:18:10.368Z,23.27
2023-10-14T18:20:39.081Z,21.75
2023-10-14T18:23:08.503Z,23.65
2023-10-14T18:25:44.256Z,22.23
2023-10-14T18:28:14.021Z,20.70
2023-10-14T18:30:42.278Z,22.02
2023-10-14T18:33:12.808Z,22.08
2023-10-14T18:35:41.975Z,23.73
2023-10-14T18:38:12.474Z,21.62
2023-10-14T18:40:44.255Z,21.10
2023-10-14T18:43:14.710Z,20.15
2023-10-14T18:45:44.634Z,20.08
2023-10-14T18:48:13.757Z,19.40
2023-10-14T18:50:43.279Z,24.00
2023-10-14T18:53:14.125Z,23.97
2023-10-14T18:55:52.388Z,22.42
2023-10-14T18:58:21.739Z,20.23
2023-10-14T19:00:50.754Z,19.87
2023-10-14T19:03:19.487Z,21.65
2023-10-14T19:05:48.034Z,21.25
2023-10-14T19:08:16.943Z,20.10
2023-10-14T19:10:50.008Z,21.27
2023-10-14T19:13:20.820Z,21.23
2023-10-14T19:15:55.365Z,20.20
2023-10-14T19:18:24.719Z,19.73
2023-10-14T19:20:54.047Z,19.83
2023-10-14T19:23:30.502Z,20.52
2023-10-14T19:26:04.882Z,20.65
2023-10-14T19:28:33.304Z,20.25
2023-10-14T19:31:03.684Z,19.52
2023-10-14T19:33:32.721Z,19.33
2023-10-14T19:36:07.467Z,18.40
2023-10-14T19:38:38.976Z,21.05
2023-10-14T19:41:07.996Z,20.63
2023-10-14T19:43:38.453Z,18.48
2023-10-14T19:46:10.847Z,19.80
2023-10-14T19:48:44.674Z,21.80
2023-10-14T19:51:15.146Z,24.27
2023-10-14T19:53:44.697Z,23.60
2023-10-14T19:56:13.714Z,22.13
2023-10-14T19:58:45.084Z,17.55
2023-10-14T20:01:17.580Z,19.25
2023-10-14T20:03:47.253Z,20.12
2023-10-14T20:06:20.483Z,17.23
2023-10-14T20:08:51.935Z,17.80
2023-10-14T20:11:20.209Z,16.85
2023-10-14T20:13:48.573Z,17.37
2023-10-14T20:16:17.845Z,18.02
2023-10-14T20:18:46.410Z,17.35
2023-10-14T20:21:15.286Z,18.87
2023-10-14T20:23:44.976Z,20.90
2023-10-14T20:26:14.161Z,18.52
2023-10-14T20:28:46.067Z,19.17
2023-10-14T20:31:14.719Z,17.83
2023-10-14T20:33:42.815Z,20.48
2023-10-14T20:36:10.521Z,18.75
2023-10-14T20:38:37.981Z,18.12
2023-10-14T20:41:07.763Z,19.47
2023-10-14T20:43:36.121Z,19.23
2023-10-14T20:46:10.416Z,17.67
2023-10-14T20:48:39.245Z,18.73
2023-10-14T20:51:11.059Z,18.25
2023-10-14T20:53:38.745Z,18.10
2023-10-14T20:56:14.880Z,18.83
2023-10-14T20:58:42.879Z,17.42
2023-10-14T21:01:15.591Z,19.23
2023-10-14T21:03:44.048Z,20.65
2023-10-14T21:08:39.749Z,18.47
2023-10-14T21:11:11.904Z,18.00
2023-10-14T21:13:39.733Z,18.90
2023-10-14T21:16:07.269Z,19.05
2023-10-14T21:18:35.831Z,18.83
2023-10-14T21:21:11.148Z,20.58
2023-10-14T21:23:39.430Z,18.57
2023-10-14T21:26:07.092Z,19.45
2023-10-14T21:28:34.693Z,19.15
2023-10-14T21:31:03.772Z,20.12
2023-10-14T21:33:32.585Z,20.30
2023-10-14T21:36:00.189Z,18.52
2023-10-14T21:38:27.978Z,19.23
2023-10-14T21:40:55.579Z,19.50
2023-10-14T21:43:23.691Z,16.83
2023-10-14T21:45:52.335Z,19.35
2023-10-14T21:48:20.659Z,16.10
2023-10-14T21:50:48.128Z,14.23
2023-10-14T21:53:15.862Z,16.35
2023-10-14T21:55:43.526Z,18.15
2023-10-14T21:58:15.079Z,11.93
2023-10-14T22:00:49.991Z,13.55
2023-10-14T22:03:21.371Z,10.77
2023-10-14T22:05:49.409Z,12.93
2023-10-14T22:08:19.745Z,9.30
2023-10-14T22:10:53.445Z,10.25
2023-10-14T22:13:22.821Z,13.00
2023-10-14T22:15:51.441Z,9.60
2023-10-14T22:18:21.802Z,9.52
2023-10-14T22:20:51.519Z,8.37
2023-10-14T22:23:19.388Z,8.82
2023-10-14T22:25:47.136Z,9.02
2023-10-14T22:28:17.017Z,8.68
2023-10-14T22:30:46.984Z,11.18
2023-10-14T22:33:14.892Z,11.55
2023-10-14T22:35:43.302Z,8.93
2023-10-14T22:38:13.267Z,7.97
2023-10-14T22:40:43.827Z,10.15
2023-10-14T22:43:12.159Z,9.70
2023-10-14T22:45:39.830Z,9.82
2023-10-14T22:48:08.476Z,7.50
2023-10-14T22:50:38.655Z,8.98
2023-10-14T22:53:08.049Z,8.95
2023-10-14T22:55:35.997Z,9.70
2023-10-14T22:58:06.286Z,9.45
2023-10-14T23:00:34.178Z,8.30
2023-10-14T23:03:10.819Z,8.82
2023-10-14T23:05:42.767Z,9.60
2023-10-14T23:08:14.128Z,8.85
2023-10-14T23:10:42.144Z,9.82
2023-10-14T23:13:09.986Z,9.63
2023-10-14T23:15:40.365Z,9.50
2023-10-14T23:18:08.093Z,9.77
2023-10-14T23:20:36.403Z,8.60
2023-10-14T23:23:06.501Z,10.13
2023-10-14T23:25:36.345Z,9.43
2023-10-14T23:28:04.900Z,9.40
2023-10-14T23:30:32.522Z,8.07
2023-10-14T23:33:01.722Z,8.30
2023-10-14T23:35:29.783Z,8.73
2023-10-14T23:38:02.882Z,7.50
2023-10-14T23:40:31.912Z,9.77
2023-10-14T23:43:01.281Z,8.07
2023-10-14T23:45:32.489Z,7.10
2023-10-14T23:48:02.909Z,8.43
2023-10-14T23:50:31.661Z,7.57
2023-10-14T23:53:02.034Z,6.53
2023-10-14T23:55:29.786Z,6.75
2023-10-14T23:57:59.814Z,6.68
